createdAt,value
2023-03-24T00:01:07.770Z,64.63
2023-03-24T00:03:35.002Z,64.61
2023-03-24T00:06:04.906Z,64.58
2023-03-24T00:08:38.233Z,64.51
2023-03-24T00:11:16.366Z,64.38
2023-03-24T00:13:47.445Z,64.62
2023-03-24T00:16:17.215Z,64.45
2023-03-24T00:18:44.292Z,64.30
2023-03-24T00:21:13.297Z,64.56
2023-03-24T00:23:42.950Z,64.49
2023-03-24T00:26:17.257Z,64.52
2023-03-24T00:28:48.265Z,64.59
2023-03-24T00:31:17.704Z,64.54
2023-03-24T00:33:51.382Z,64.61
2023-03-24T00:36:20.781Z,64.29
2023-03-24T00:38:48.700Z,64.59
2023-03-24T00:41:20.341Z,64.57
2023-03-24T00:43:50.422Z,64.60
2023-03-24T00:46:31.146Z,64.80
2023-03-24T00:49:02.940Z,64.64
2023-03-24T00:51:36.136Z,64.69
2023-03-24T00:54:04.921Z,64.88
2023-03-24T00:56:34.727Z,64.86
2023-03-24T00:59:02.975Z,64.86
2023-03-24T01:01:35.709Z,64.69
2023-03-24T01:04:03.920Z,64.93
2023-03-24T01:06:31.735Z,65.06
2023-03-24T01:08:58.728Z,64.99
2023-03-24T01:11:27.007Z,65.06
2023-03-24T01:13:54.850Z,65.05
2023-03-24T01:16:26.347Z,65.17
2023-03-24T01:18:55.050Z,65.13
2023-03-24T01:21:22.427Z,65.15
2023-03-24T01:23:49.657Z,65.11
2023-03-24T01:26:16.705Z,64.99
2023-03-24T01:28:44.057Z,65.30
2023-03-24T01:31:12.006Z,65.50
2023-03-24T01:33:40.018Z,65.48
2023-03-24T01:36:08.428Z,65.66
2023-03-24T01:38:36.255Z,65.67
2023-03-24T01:41:04.779Z,65.63
2023-03-24T01:43:33.950Z,65.62
2023-03-24T01:46:20.465Z,65.76
2023-03-24T01:48:53.498Z,65.96
2023-03-24T01:51:32.460Z,66.04
2023-03-24T01:54:04.938Z,65.99
2023-03-24T01:56:38.504Z,66.28
2023-03-24T01:59:18.620Z,66.41
2023-03-24T02:02:07.227Z,66.47
2023-03-24T02:04:59.674Z,66.36
2023-03-24T02:07:42.424Z,66.44
2023-03-24T02:10:13.847Z,66.58
2023-03-24T02:12:42.781Z,66.66
2023-03-24T02:15:11.826Z,66.77
2023-03-24T02:17:57.520Z,66.62
2023-03-24T02:20:47.886Z,66.79
2023-03-24T02:23:42.738Z,66.72
2023-03-24T02:26:30.733Z,66.77
2023-03-24T02:29:06.752Z,66.67
2023-03-24T02:31:50.475Z,66.76
2023-03-24T02:34:42.338Z,66.66
2023-03-24T02:37:49.545Z,66.74
2023-03-24T02:40:30.933Z,66.86
2023-03-24T02:43:41.857Z,66.75
2023-03-24T02:46:38.495Z,66.86
2023-03-24T02:49:31.220Z,67.01
2023-03-24T02:52:11.453Z,66.85
2023-03-24T02:54:51.808Z,67.01
2023-03-24T02:57:28.476Z,67.20
2023-03-24T03:00:22.993Z,67.09
2023-03-24T03:03:43.879Z,67.04
2023-03-24T03:06:22.406Z,67.09
2023-03-24T03:08:53.126Z,67.05
2023-03-24T03:11:20.126Z,67.05
2023-03-24T03:13:56.814Z,67.31
2023-03-24T03:16:39.524Z,67.39
2023-03-24T03:19:16.683Z,67.28
2023-03-24T03:21:48.958Z,67.18
2023-03-24T03:24:27.798Z,67.43
2023-03-24T03:27:04.322Z,67.30
2023-03-24T03:29:37.237Z,67.14
2023-03-24T03:32:09.717Z,67.43
2023-03-24T03:34:43.384Z,67.23
2023-03-24T03:37:13.293Z,67.31
2023-03-24T03:40:03.091Z,67.39
2023-03-24T03:42:32.201Z,67.39
2023-03-24T03:44:59.477Z,67.54
2023-03-24T03:47:29.341Z,67.57
2023-03-24T03:50:00.671Z,67.79
2023-03-24T03:52:28.281Z,67.59
2023-03-24T03:54:56.168Z,67.72
2023-03-24T03:57:23.563Z,67.94
2023-03-24T04:00:16.129Z,67.81
2023-03-24T04:03:06.509Z,67.86
2023-03-24T04:05:37.342Z,67.93
2023-03-24T04:08:26.031Z,67.84
2023-03-24T04:11:11.833Z,67.97
2023-03-24T04:14:00.776Z,67.84
2023-03-24T04:17:04.834Z,67.80
2023-03-24T04:20:21.492Z,67.90
2023-03-24T04:23:05.726Z,67.88
2023-03-24T04:25:45.350Z,67.78
2023-03-24T04:28:38.789Z,67.93
2023-03-24T04:31:23.608Z,68.03
2023-03-24T04:33:58.683Z,68.00
2023-03-24T04:36:42.810Z,68.16
2023-03-24T04:39:39.299Z,68.10
2023-03-24T04:42:18.301Z,68.01
2023-03-24T04:44:46.904Z,68.18
2023-03-24T04:47:38.780Z,68.16
2023-03-24T04:50:39.891Z,68.29
2023-03-24T04:53:12.081Z,68.07
2023-03-24T04:56:03.192Z,68.25
2023-03-24T04:59:02.853Z,68.04
2023-03-24T05:01:30.844Z,68.31
2023-03-24T05:04:26.852Z,68.21
2023-03-24T05:06:54.858Z,68.22
2023-03-24T05:09:27.901Z,68.27
2023-03-24T05:11:56.380Z,68.22
2023-03-24T05:14:26.139Z,68.35
2023-03-24T05:16:56.639Z,68.37
2023-03-24T05:19:25.831Z,68.22
2023-03-24T05:21:54.292Z,68.32
2023-03-24T05:24:22.517Z,68.34
2023-03-24T05:26:51.152Z,68.47
2023-03-24T05:29:20.361Z,68.38
2023-03-24T05:31:51.123Z,68.42
2023-03-24T05:34:22.558Z,68.53
2023-03-24T05:37:18.077Z,68.39
2023-03-24T05:39:49.622Z,68.59
2023-03-24T05:42:36.160Z,68.48
2023-03-24T05:45:05.457Z,68.32
2023-03-24T05:47:33.644Z,68.35
2023-03-24T05:50:02.186Z,68.26
2023-03-24T05:52:31.896Z,67.98
2023-03-24T05:55:12.896Z,67.80
2023-03-24T05:57:41.589Z,67.76
2023-03-24T06:00:26.828Z,67.49
2023-03-24T06:03:01.138Z,67.13
2023-03-24T06:05:38.794Z,66.87
2023-03-24T06:08:06.398Z,66.50
2023-03-24T06:10:37.165Z,66.34
2023-03-24T06:13:05.042Z,66.21
2023-03-24T06:15:33.913Z,65.95
2023-03-24T06:18:21.699Z,65.67
2023-03-24T06:20:51.359Z,65.60
2023-03-24T06:23:28.764Z,65.55
2023-03-24T06:26:09.642Z,65.61
2023-03-24T06:28:42.473Z,65.69
2023-03-24T06:31:19.685Z,65.67
2023-03-24T06:33:50.018Z,65.65
2023-03-24T06:36:17.466Z,65.67
2023-03-24T06:38:46.059Z,65.76
2023-03-24T06:41:17.535Z,66.00
2023-03-24T06:43:44.966Z,66.06
2023-03-24T06:46:12.354Z,66.89
2023-03-24T06:48:43.565Z,67.99
2023-03-24T06:51:10.683Z,68.69
2023-03-24T06:53:41.464Z,69.38
2023-03-24T06:56:08.799Z,69.83
2023-03-24T06:58:42.824Z,70.30
2023-03-24T07:01:16.425Z,70.59
2023-03-24T07:04:05.546Z,70.95
2023-03-24T07:07:12.457Z,71.50
2023-03-24T07:09:45.255Z,71.83
2023-03-24T07:12:14.615Z,71.98
2023-03-24T07:14:42.383Z,72.24
2023-03-24T07:17:09.448Z,72.59
2023-03-24T07:20:08.667Z,72.76
2023-03-24T07:22:42.236Z,72.72
2023-03-24T07:25:25.903Z,73.03
2023-03-24T07:28:02.028Z,73.18
2023-03-24T07:30:39.895Z,73.60
2023-03-24T07:33:11.304Z,73.83
2023-03-24T07:35:43.141Z,73.97
2023-03-24T07:38:11.073Z,74.00
2023-03-24T07:40:38.357Z,74.06
2023-03-24T07:43:06.954Z,73.80
2023-03-24T07:45:53.368Z,73.80
2023-03-24T07:48:20.295Z,74.09
2023-03-24T07:50:47.738Z,73.97
2023-03-24T07:53:37.924Z,73.81
2023-03-24T07:56:05.225Z,73.75
2023-03-24T07:58:33.057Z,73.83
2023-03-24T08:01:20.240Z,73.60
2023-03-24T08:03:54.768Z,73.62
2023-03-24T08:06:47.865Z,73.79
2023-03-24T08:09:15.185Z,73.57
2023-03-24T08:11:42.996Z,73.74
2023-03-24T08:14:09.902Z,73.62
2023-03-24T08:16:39.421Z,73.84
2023-03-24T08:19:06.706Z,73.88
2023-03-24T08:21:33.827Z,73.77
2023-03-24T08:24:01.507Z,73.55
2023-03-24T08:26:28.481Z,73.54
2023-03-24T08:28:55.581Z,73.27
2023-03-24T08:31:22.688Z,73.48
2023-03-24T08:33:50.291Z,73.39
2023-03-24T08:36:17.259Z,73.47
2023-03-24T08:38:44.354Z,73.26
2023-03-24T08:41:11.715Z,73.19
2023-03-24T08:43:39.212Z,73.26
2023-03-24T08:46:10.548Z,73.16
2023-03-24T08:48:41.543Z,73.05
2023-03-24T08:51:13.299Z,73.05
2023-03-24T08:53:41.011Z,72.84
2023-03-24T08:56:08.218Z,73.10
2023-03-24T08:58:35.418Z,73.05
2023-03-24T09:01:03.145Z,72.96
2023-03-24T09:03:30.186Z,72.99
2023-03-24T09:05:57.768Z,73.03
2023-03-24T09:08:25.662Z,72.96
2023-03-24T09:10:52.682Z,72.93
2023-03-24T09:13:21.300Z,73.05
2023-03-24T09:15:50.671Z,72.95
2023-03-24T09:18:19.479Z,73.24
2023-03-24T09:20:47.730Z,73.16
2023-03-24T09:23:16.140Z,73.34
2023-03-24T09:25:43.645Z,73.01
2023-03-24T09:28:10.956Z,72.85
2023-03-24T09:30:38.966Z,72.78
2023-03-24T09:33:06.609Z,72.75
2023-03-24T09:35:33.669Z,72.66
2023-03-24T09:38:00.720Z,72.40
2023-03-24T09:40:33.684Z,72.20
2023-03-24T09:43:05.950Z,71.75
2023-03-24T09:45:41.112Z,71.71
2023-03-24T09:48:17.957Z,71.65
2023-03-24T09:51:08.247Z,71.72
2023-03-24T09:53:46.890Z,71.37
2023-03-24T09:56:18.090Z,71.38
2023-03-24T09:58:50.253Z,71.54
2023-03-24T10:01:18.462Z,71.35
2023-03-24T10:03:47.000Z,71.62
2023-03-24T10:06:27.374Z,71.49
2023-03-24T10:09:18.115Z,71.34
2023-03-24T10:12:34.835Z,71.31
2023-03-24T10:15:37.273Z,71.37
2023-03-24T10:18:21.055Z,71.46
2023-03-24T10:20:54.670Z,71.39
2023-03-24T10:23:36.027Z,71.53
2023-03-24T10:26:27.217Z,71.45
2023-03-24T10:29:23.544Z,71.15
2023-03-24T10:31:59.793Z,70.84
2023-03-24T10:34:30.918Z,70.73
2023-03-24T10:37:02.245Z,70.63
2023-03-24T10:39:43.598Z,70.45
2023-03-24T10:42:18.827Z,70.41
2023-03-24T10:44:50.018Z,70.09
2023-03-24T10:47:23.400Z,70.33
2023-03-24T10:49:58.181Z,70.17
2023-03-24T10:52:25.311Z,70.06
2023-03-24T10:55:03.459Z,70.11
2023-03-24T10:57:31.030Z,69.99
2023-03-24T11:00:01.569Z,69.90
2023-03-24T11:02:34.398Z,70.00
2023-03-24T11:05:12.985Z,70.09
2023-03-24T11:07:42.865Z,69.94
2023-03-24T11:10:09.696Z,70.03
2023-03-24T11:12:42.378Z,70.13
2023-03-24T11:15:31.085Z,69.90
2023-03-24T11:18:03.701Z,69.95
2023-03-24T11:20:41.768Z,69.84
2023-03-24T11:23:24.978Z,69.90
2023-03-24T11:26:08.625Z,69.79
2023-03-24T11:28:41.818Z,69.72
2023-03-24T11:31:12.000Z,69.92
2023-03-24T11:33:47.539Z,69.69
2023-03-24T11:36:36.067Z,69.58
2023-03-24T11:39:17.698Z,69.44
2023-03-24T11:42:16.687Z,69.32
2023-03-24T11:44:53.898Z,69.77
2023-03-24T11:47:35.331Z,70.49
2023-03-24T11:50:17.854Z,70.65
2023-03-24T11:53:14.875Z,70.55
2023-03-24T11:55:50.306Z,70.72
2023-03-24T11:58:40.130Z,70.95
2023-03-24T12:01:27.098Z,70.51
2023-03-24T12:04:06.463Z,70.39
2023-03-24T12:07:11.360Z,70.38
2023-03-24T12:09:39.195Z,69.91
2023-03-24T12:12:32.340Z,69.58
2023-03-24T12:15:39.561Z,68.78
2023-03-24T12:18:14.285Z,68.44
2023-03-24T12:20:59.856Z,68.13
2023-03-24T12:23:43.247Z,68.01
2023-03-24T12:26:19.520Z,67.24
2023-03-24T12:28:57.883Z,66.52
2023-03-24T12:31:34.763Z,64.53
2023-03-24T12:34:34.005Z,65.75
2023-03-24T12:37:21.450Z,66.98
2023-03-24T12:40:23.707Z,68.17
2023-03-24T12:43:18.854Z,69.20
2023-03-24T12:45:55.044Z,69.48
2023-03-24T12:48:35.650Z,70.04
2023-03-24T12:51:15.013Z,70.39
2023-03-24T12:54:06.021Z,70.10
2023-03-24T12:56:47.540Z,70.11
2023-03-24T12:59:53.651Z,69.93
2023-03-24T13:02:44.797Z,69.86
2023-03-24T13:05:26.947Z,69.88
2023-03-24T13:07:59.162Z,69.63
2023-03-24T13:10:31.800Z,69.59
2023-03-24T13:13:06.370Z,69.72
2023-03-24T13:15:48.066Z,69.68
2023-03-24T13:18:36.480Z,69.81
2023-03-24T13:21:20.391Z,69.90
2023-03-24T13:23:50.186Z,69.95
2023-03-24T13:26:50.433Z,69.59
2023-03-24T13:29:56.218Z,69.40
2023-03-24T13:32:27.160Z,69.20
2023-03-24T13:35:17.523Z,68.96
2023-03-24T13:38:17.671Z,68.64
2023-03-24T13:40:51.942Z,68.36
2023-03-24T13:43:22.372Z,68.36
2023-03-24T13:45:52.128Z,68.34
2023-03-24T13:48:30.049Z,68.34
2023-03-24T13:51:45.623Z,68.45
2023-03-24T13:54:28.728Z,68.47
2023-03-24T13:57:04.578Z,68.58
2023-03-24T13:59:42.209Z,68.52
2023-03-24T14:02:17.889Z,68.48
2023-03-24T14:04:56.639Z,68.48
2023-03-24T14:07:44.601Z,68.04
2023-03-24T14:10:36.736Z,67.92
2023-03-24T14:13:11.875Z,68.11
2023-03-24T14:15:58.938Z,67.98
2023-03-24T14:18:26.349Z,67.82
2023-03-24T14:20:56.748Z,67.95
2023-03-24T14:23:42.766Z,67.83
2023-03-24T14:26:31.930Z,68.00
2023-03-24T14:28:59.148Z,67.94
2023-03-24T14:31:34.594Z,68.23
2023-03-24T14:34:20.538Z,68.20
2023-03-24T14:37:00.367Z,67.86
2023-03-24T14:39:47.494Z,67.88
2023-03-24T14:42:32.967Z,67.91
2023-03-24T14:45:26.788Z,67.87
2023-03-24T14:48:03.073Z,67.90
2023-03-24T14:50:30.405Z,67.79
2023-03-24T14:53:04.275Z,67.74
2023-03-24T14:55:31.790Z,67.88
2023-03-24T14:58:12.181Z,67.83
2023-03-24T15:01:05.909Z,67.93
2023-03-24T15:03:53.220Z,68.00
2023-03-24T15:06:26.369Z,68.01
2023-03-24T15:08:58.893Z,68.28
2023-03-24T15:11:33.784Z,68.21
2023-03-24T15:14:03.894Z,68.00
2023-03-24T15:16:34.486Z,67.10
2023-03-24T15:19:18.614Z,67.48
2023-03-24T15:21:51.456Z,66.97
2023-03-24T15:24:21.521Z,67.01
2023-03-24T15:27:08.799Z,66.87
2023-03-24T15:29:39.839Z,66.74
2023-03-24T15:32:14.429Z,66.96
2023-03-24T15:34:43.152Z,66.47
2023-03-24T15:37:48.469Z,66.64
2023-03-24T15:40:32.864Z,66.52
2023-03-24T15:43:03.888Z,66.47
2023-03-24T15:45:50.992Z,66.65
2023-03-24T15:48:28.316Z,66.84
2023-03-24T15:51:01.404Z,66.84
2023-03-24T15:53:42.392Z,66.80
2023-03-24T15:56:12.574Z,67.07
2023-03-24T15:58:51.825Z,67.15
2023-03-24T16:01:27.787Z,67.06
2023-03-24T16:03:55.573Z,67.10
2023-03-24T16:06:34.110Z,66.88
2023-03-24T16:09:09.792Z,67.22
2023-03-24T16:11:38.089Z,67.38
2023-03-24T16:14:21.105Z,67.36
2023-03-24T16:16:48.490Z,67.32
2023-03-24T16:19:16.220Z,67.23
2023-03-24T16:21:43.309Z,67.35
2023-03-24T16:24:12.068Z,67.22
2023-03-24T16:26:39.294Z,67.16
2023-03-24T16:29:22.166Z,67.16
2023-03-24T16:32:02.279Z,67.24
2023-03-24T16:34:31.876Z,67.06
2023-03-24T16:37:01.559Z,67.04
2023-03-24T16:39:30.260Z,67.06
2023-03-24T16:41:59.431Z,67.20
2023-03-24T16:44:27.757Z,66.90
2023-03-24T16:46:55.704Z,66.93
2023-03-24T16:49:23.998Z,66.88
2023-03-24T16:51:53.365Z,66.95
2023-03-24T16:54:21.200Z,66.84
2023-03-24T16:56:48.485Z,66.80
2023-03-24T16:59:16.260Z,66.92
2023-03-24T17:01:46.407Z,66.88
2023-03-24T17:04:21.486Z,66.82
2023-03-24T17:06:53.034Z,66.79
2023-03-24T17:09:21.532Z,66.97
2023-03-24T17:11:51.791Z,66.92
2023-03-24T17:14:19.210Z,67.00
2023-03-24T17:16:49.344Z,66.97
2023-03-24T17:19:19.030Z,67.21
2023-03-24T17:21:50.268Z,67.08
2023-03-24T17:24:17.801Z,67.26
2023-03-24T17:26:44.965Z,67.32
2023-03-24T17:29:13.403Z,67.26
2023-03-24T17:31:43.466Z,67.15
2023-03-24T17:34:21.443Z,67.34
2023-03-24T17:36:51.314Z,67.17
2023-03-24T17:39:20.426Z,67.65
2023-03-24T17:41:47.612Z,67.67
2023-03-24T17:44:14.546Z,67.52
2023-03-24T17:46:56.082Z,67.62
2023-03-24T17:49:23.046Z,67.71
2023-03-24T17:51:49.952Z,67.69
2023-03-24T17:54:22.430Z,67.68
2023-03-24T17:56:50.800Z,67.66
2023-03-24T17:59:19.566Z,67.69
2023-03-24T18:01:47.718Z,67.58
2023-03-24T18:04:15.302Z,67.58
2023-03-24T18:06:46.433Z,67.57
2023-03-24T18:09:13.697Z,67.59
2023-03-24T18:11:40.977Z,67.50
2023-03-24T18:14:09.402Z,67.42
2023-03-24T18:16:37.323Z,67.55
2023-03-24T18:22:23.843Z,67.49
2023-03-24T18:24:52.221Z,67.62
2023-03-24T18:27:19.502Z,67.40
2023-03-24T18:29:46.400Z,67.45
2023-03-24T18:32:13.723Z,67.52
2023-03-24T18:34:46.164Z,67.67
2023-03-24T18:37:15.691Z,67.62
2023-03-24T18:39:44.312Z,67.52
2023-03-24T18:42:12.677Z,67.83
2023-03-24T18:44:39.949Z,67.91
2023-03-24T18:47:07.138Z,67.93
2023-03-24T18:49:34.170Z,68.31
2023-03-24T18:52:01.876Z,68.34
2023-03-24T18:54:29.408Z,68.20
2023-03-24T18:56:57.682Z,68.54
2023-03-24T18:59:28.603Z,68.65
2023-03-24T19:01:55.621Z,68.48
2023-03-24T19:04:22.568Z,68.58
2023-03-24T19:06:50.616Z,68.75
2023-03-24T19:09:22.611Z,68.92
2023-03-24T19:11:50.283Z,69.13
2023-03-24T19:14:17.422Z,69.08
2023-03-24T19:16:46.989Z,69.31
2023-03-24T19:19:14.357Z,69.40
2023-03-24T19:21:42.277Z,69.71
2023-03-24T19:24:10.106Z,69.75
2023-03-24T19:26:37.051Z,69.75
2023-03-24T19:29:04.720Z,69.79
2023-03-24T19:31:33.961Z,69.82
2023-03-24T19:34:01.100Z,70.17
2023-03-24T19:36:29.991Z,69.64
2023-03-24T19:38:58.228Z,69.89
2023-03-24T19:41:26.886Z,69.92
2023-03-24T19:43:53.890Z,70.02
2023-03-24T19:46:21.377Z,70.79
2023-03-24T19:48:49.558Z,70.26
2023-03-24T19:51:16.769Z,70.62
2023-03-24T19:53:43.835Z,70.55
2023-03-24T19:56:11.427Z,70.72
2023-03-24T19:58:39.265Z,70.45
2023-03-24T20:01:07.493Z,70.35
2023-03-24T20:03:36.716Z,70.41
2023-03-24T20:06:10.631Z,70.46
2023-03-24T20:08:38.577Z,70.04
2023-03-24T20:11:11.049Z,70.15
2023-03-24T20:13:38.810Z,70.05
2023-03-24T20:16:07.605Z,70.01
2023-03-24T20:18:35.992Z,69.92
2023-03-24T20:21:03.944Z,69.88
2023-03-24T20:23:31.751Z,70.09
2023-03-24T20:26:00.309Z,70.53
2023-03-24T20:28:28.245Z,70.42
2023-03-24T20:31:02.965Z,70.60
2023-03-24T20:33:31.729Z,70.47
2023-03-24T20:36:00.286Z,70.40
2023-03-24T20:38:28.004Z,70.59
2023-03-24T20:41:06.695Z,70.71
2023-03-24T20:43:36.482Z,70.77
2023-03-24T20:46:05.853Z,70.66
2023-03-24T20:48:33.471Z,70.74
2023-03-24T20:51:02.587Z,70.66
2023-03-24T20:53:33.118Z,70.77
2023-03-24T20:56:02.352Z,70.98
2023-03-24T20:58:31.019Z,70.75
2023-03-24T21:00:58.539Z,70.67
2023-03-24T21:03:27.605Z,70.62
2023-03-24T21:05:54.569Z,70.68
2023-03-24T21:08:21.754Z,70.95
2023-03-24T21:10:48.883Z,70.59
2023-03-24T21:13:16.888Z,70.67
2023-03-24T21:15:44.870Z,70.44
2023-03-24T21:18:12.174Z,70.46
2023-03-24T21:20:40.209Z,70.18
2023-03-24T21:23:09.419Z,70.22
2023-03-24T21:25:37.852Z,70.27
2023-03-24T21:28:05.303Z,70.30
2023-03-24T21:30:33.518Z,70.14
2023-03-24T21:33:01.080Z,70.14
2023-03-24T21:35:28.595Z,70.42
2023-03-24T21:37:56.405Z,70.17
2023-03-24T21:40:25.766Z,70.32
2023-03-24T21:42:56.025Z,70.03
2023-03-24T21:45:23.973Z,70.26
2023-03-24T21:47:51.473Z,70.09
2023-03-24T21:50:23.719Z,70.18
2023-03-24T21:52:55.685Z,70.17
2023-03-24T21:55:23.533Z,70.04
2023-03-24T21:57:52.142Z,70.16
2023-03-24T22:00:30.054Z,69.89
2023-03-24T22:02:58.521Z,70.02
2023-03-24T22:05:28.060Z,69.87
2023-03-24T22:07:56.395Z,69.97
2023-03-24T22:10:25.885Z,69.80
2023-03-24T22:12:54.169Z,69.83
2023-03-24T22:15:21.633Z,69.86
2023-03-24T22:17:48.952Z,69.98
2023-03-24T22:20:16.603Z,69.98
2023-03-24T22:22:43.929Z,70.04
2023-03-24T22:25:14.521Z,69.92
2023-03-24T22:27:42.617Z,70.15
2023-03-24T22:30:12.618Z,70.28
2023-03-24T22:32:41.479Z,70.27
2023-03-24T22:35:09.122Z,70.25
2023-03-24T22:37:37.459Z,70.21
2023-03-24T22:40:07.032Z,70.23
2023-03-24T22:42:34.101Z,70.15
2023-03-24T22:45:01.152Z,70.25
2023-03-24T22:47:29.203Z,70.22
2023-03-24T22:49:56.333Z,70.35
2023-03-24T22:52:23.412Z,70.28
2023-03-24T22:54:50.581Z,70.50
2023-03-24T22:57:18.939Z,70.26
2023-03-24T22:59:46.178Z,70.35
2023-03-24T23:02:13.224Z,70.24
2023-03-24T23:04:42.036Z,70.40
2023-03-24T23:07:09.457Z,70.14
2023-03-24T23:09:37.040Z,70.31
2023-03-24T23:12:04.821Z,70.36
2023-03-24T23:14:32.073Z,70.57
2023-03-24T23:16:59.752Z,70.47
2023-03-24T23:19:28.327Z,70.56
2023-03-24T23:21:55.303Z,70.59
2023-03-24T23:24:22.410Z,70.55
2023-03-24T23:26:49.444Z,70.31
2023-03-24T23:29:16.411Z,70.41
2023-03-24T23:31:43.831Z,70.69
2023-03-24T23:34:11.896Z,70.57
2023-03-24T23:36:45.225Z,70.66
2023-03-24T23:39:12.926Z,70.53
2023-03-24T23:41:40.247Z,70.65
2023-03-24T23:44:07.343Z,70.46
2023-03-24T23:46:34.284Z,70.73
2023-03-24T23:49:01.845Z,70.65
2023-03-24T23:51:28.990Z,70.79
2023-03-24T23:53:57.169Z,71.02
2023-03-24T23:56:24.209Z,70.98
2023-03-24T23:58:52.757Z,71.17
